Marinicki — 9HWU9 — position and weather

sailwx.info

Track history (hours):
 
Tides and Currents Weather Stations Pressure Air Temp Water Temp Dewpoint Dewpoint Depression Visibility Wind Speed Wind Dir Waves Ship Positions

Marinicki

Last reported at 2018-May-10 19:59 UTC. Time now 2018-May-24 14:07 UTC.
Position N 35°09' W 022°21'.
Warning: this ship's position is 13 days out of date.

Length 225 m; draft 12.5 m.

Type: Cargo ship. MMSI: 249650000.

Date/timePositionNaut miles runAvg speedWind from/ knotsBaromVisibWave heightAir tempDewpointWater temp
2018-May-10 19:59N 35°09' W 022°21'714.1
2018-May-10 19:27N 35°10' W 022°30'1313.9
2018-May-10 18:32N 35°11' W 022°46'413.8
2018-May-10 18:16N 35°11' W 022°50'613.8
2018-May-10 17:52N 35°12' W 022°57'513.8
2018-May-10 17:30N 35°12' W 023°03'1013.7
2018-May-10 16:47N 35°13' W 023°15'613.9
2018-May-10 16:20N 35°14' W 023°23'514.0
2018-May-10 15:59N 35°14' W 023°29'613.8
2018-May-10 15:30N 35°15' W 023°37'813.8
2018-May-10 14:55N 35°15' W 023°47'713.8
2018-May-10 14:25N 35°16' W 023°55'714.0
2018-May-10 13:53N 35°17' W 024°04'514.0
2018-May-10 13:30N 35°17' W 024°11'713.5
2018-May-10 13:00N 35°17' W 024°19'713.7
2018-May-10 12:30N 35°18' W 024°27'713.9
2018-May-10 12:00N 35°19' W 024°36'714.1
2018-May-10 11:30N 35°19' W 024°44'714.0
2018-May-10 11:00N 35°19' W 024°53'714.3
2018-May-10 10:30N 35°20' W 025°01'1014.1
2018-May-10 09:49N 35°21' W 025°13'414.1
2018-May-10 09:30N 35°21' W 025°19'814.1
2018-May-10 08:57N 35°22' W 025°28'614.1
2018-May-10 08:30N 35°23' W 025°36'713.9
2018-May-10 07:59N 35°23' W 025°45'713.5
2018-May-10 07:29N 35°24' W 025°53'613.4
2018-May-10 07:00N 35°24' W 026°01'713.5
2018-May-10 06:30N 35°25' W 026°09'713.9
2018-May-10 05:59N 35°25' W 026°18'713.8
2018-May-10 05:30N 35°26' W 026°26'713.7
2018-May-10 05:00N 35°27' W 026°35'713.5
2018-May-10 04:29N 35°27' W 026°43'613.4
2018-May-10 04:00N 35°28' W 026°51'713.5
2018-May-10 03:30N 35°28' W 026°59'713.3
2018-May-10 03:00N 35°29' W 027°07'613.1
2018-May-10 02:30N 35°30' W 027°15'713.2
2018-May-10 02:00N 35°30' W 027°23'1213.2
2018-May-10 01:06N 35°31' W 027°38'213.2
2018-May-10 00:58N 35°31' W 027°40'713.2
2018-May-10 00:26N 35°32' W 027°49'1613.2
2018-May-09 23:11N 35°33' W 028°09'312.8
2018-May-09 22:59N 35°33' W 028°12'813.0
2018-May-09 22:23N 35°34' W 028°22'513.0
2018-May-09 21:58N 35°34' W 028°28'612.9
2018-May-09 21:30N 35°35' W 028°36'612.8
2018-May-09 21:00N 35°35' W 028°44'613.0
2018-May-09 20:31N 35°36' W 028°51'913.0
2018-May-09 19:51N 35°37' W 029°02'512.8
2018-May-09 19:29N 35°37' W 029°08'613.0
2018-May-09 19:00N 35°37' W 029°15'613.0
2018-May-09 18:30N 35°38' W 029°23'713.2
2018-May-09 18:00N 35°38' W 029°31'713.1
2018-May-09 17:31N 35°39' W 029°39'713.2
2018-May-09 17:00N 35°39' W 029°47'612.8
2018-May-09 16:30N 35°40' W 029°55'612.7
2018-May-09 16:00N 35°40' W 030°03'812.8
2018-May-09 15:25N 35°41' W 030°12'512.9
2018-May-09 15:00N 35°41' W 030°19'713.2
2018-May-09 14:29N 35°42' W 030°27'613.5
2018-May-09 14:00N 35°43' W 030°35'713.5
2018-May-09 13:30N 35°43' W 030°43'  
2018-May-02 17:31N 36°51' W 075°49'112.6
2018-May-02 17:26N 36°51' W 075°50'511.6
2018-May-02 17:00N 36°55' W 075°55'610.6
2018-May-02 16:29N 36°57' W 076°01'611.8
2018-May-02 16:00N 36°59' W 076°08'611.2
2018-May-02 15:27N 37°00' W 076°16'4 9.1
2018-May-02 14:59N 36°58' W 076°20'4 7.5
2018-May-02 14:29N 36°57' W 076°25'1 1.5
2018-May-02 13:38N 36°58' W 076°26'0 0.0
2018-May-02 13:06N 36°58' W 076°26'0 0.0
2018-May-02 04:35N 36°58' W 076°26'0 0.0
2018-May-02 04:17N 36°58' W 076°26'0 0.0
2018-May-02 03:53N 36°58' W 076°26'0 0.0
2018-May-02 03:29N 36°58' W 076°26'0 0.0
2018-May-02 02:44N 36°58' W 076°26'0 0.0
2018-May-01 04:56N 36°58' W 076°26'1 3.5
2018-May-01 04:30N 36°57' W 076°24'5 9.7
2018-May-01 03:59N 36°60' W 076°19'612.4
2018-May-01 03:30N 36°60' W 076°11'714.4
2018-May-01 03:00N 36°57' W 076°03'510.6
2018-May-01 02:30N 36°57' W 075°56'510.3
2018-May-01 02:00N 36°57' W 075°50'510.7
2018-May-01 01:30N 36°58' W 075°43'  
Track history (hours):
 
Tides and Currents Weather Stations Pressure Air Temp Water Temp Dewpoint Dewpoint Depression Visibility Wind Speed Wind Dir Waves Ship Positions

Marinicki

Last reported at 2018-May-10 19:59 UTC. Time now 2018-May-24 14:07 UTC.
Position N 35°09' W 022°21'.
Warning: this ship's position is 13 days out of date.

Length 225 m; draft 12.5 m.

Type: Cargo ship. MMSI: 249650000.

Date/timePositionNaut miles runAvg speedWind from/ knotsBaromVisibWave heightAir tempDewpointWater temp
2018-May-10 19:59N 35°09' W 022°21'714.1
2018-May-10 19:27N 35°10' W 022°30'1313.9
2018-May-10 18:32N 35°11' W 022°46'413.8
2018-May-10 18:16N 35°11' W 022°50'613.8
2018-May-10 17:52N 35°12' W 022°57'513.8
2018-May-10 17:30N 35°12' W 023°03'1013.7
2018-May-10 16:47N 35°13' W 023°15'613.9
2018-May-10 16:20N 35°14' W 023°23'514.0
2018-May-10 15:59N 35°14' W 023°29'613.8
2018-May-10 15:30N 35°15' W 023°37'813.8
2018-May-10 14:55N 35°15' W 023°47'713.8
2018-May-10 14:25N 35°16' W 023°55'714.0
2018-May-10 13:53N 35°17' W 024°04'514.0
2018-May-10 13:30N 35°17' W 024°11'713.5
2018-May-10 13:00N 35°17' W 024°19'713.7
2018-May-10 12:30N 35°18' W 024°27'713.9
2018-May-10 12:00N 35°19' W 024°36'714.1
2018-May-10 11:30N 35°19' W 024°44'714.0
2018-May-10 11:00N 35°19' W 024°53'714.3
2018-May-10 10:30N 35°20' W 025°01'1014.1
2018-May-10 09:49N 35°21' W 025°13'414.1
2018-May-10 09:30N 35°21' W 025°19'814.1
2018-May-10 08:57N 35°22' W 025°28'614.1
2018-May-10 08:30N 35°23' W 025°36'713.9
2018-May-10 07:59N 35°23' W 025°45'713.5
2018-May-10 07:29N 35°24' W 025°53'613.4
2018-May-10 07:00N 35°24' W 026°01'713.5
2018-May-10 06:30N 35°25' W 026°09'713.9
2018-May-10 05:59N 35°25' W 026°18'713.8
2018-May-10 05:30N 35°26' W 026°26'713.7
2018-May-10 05:00N 35°27' W 026°35'713.5
2018-May-10 04:29N 35°27' W 026°43'613.4
2018-May-10 04:00N 35°28' W 026°51'713.5
2018-May-10 03:30N 35°28' W 026°59'713.3
2018-May-10 03:00N 35°29' W 027°07'613.1
2018-May-10 02:30N 35°30' W 027°15'713.2
2018-May-10 02:00N 35°30' W 027°23'1213.2
2018-May-10 01:06N 35°31' W 027°38'213.2
2018-May-10 00:58N 35°31' W 027°40'713.2
2018-May-10 00:26N 35°32' W 027°49'1613.2
2018-May-09 23:11N 35°33' W 028°09'312.8
2018-May-09 22:59N 35°33' W 028°12'813.0
2018-May-09 22:23N 35°34' W 028°22'513.0
2018-May-09 21:58N 35°34' W 028°28'612.9
2018-May-09 21:30N 35°35' W 028°36'612.8
2018-May-09 21:00N 35°35' W 028°44'613.0
2018-May-09 20:31N 35°36' W 028°51'913.0
2018-May-09 19:51N 35°37' W 029°02'512.8
2018-May-09 19:29N 35°37' W 029°08'613.0
2018-May-09 19:00N 35°37' W 029°15'613.0
2018-May-09 18:30N 35°38' W 029°23'713.2
2018-May-09 18:00N 35°38' W 029°31'713.1
2018-May-09 17:31N 35°39' W 029°39'713.2
2018-May-09 17:00N 35°39' W 029°47'612.8
2018-May-09 16:30N 35°40' W 029°55'612.7
2018-May-09 16:00N 35°40' W 030°03'812.8
2018-May-09 15:25N 35°41' W 030°12'512.9
2018-May-09 15:00N 35°41' W 030°19'713.2
2018-May-09 14:29N 35°42' W 030°27'613.5
2018-May-09 14:00N 35°43' W 030°35'713.5
2018-May-09 13:30N 35°43' W 030°43'  
2018-May-02 17:31N 36°51' W 075°49'112.6
2018-May-02 17:26N 36°51' W 075°50'511.6
2018-May-02 17:00N 36°55' W 075°55'610.6
2018-May-02 16:29N 36°57' W 076°01'611.8
2018-May-02 16:00N 36°59' W 076°08'611.2
2018-May-02 15:27N 37°00' W 076°16'4 9.1
2018-May-02 14:59N 36°58' W 076°20'4 7.5
2018-May-02 14:29N 36°57' W 076°25'1 1.5
2018-May-02 13:38N 36°58' W 076°26'0 0.0
2018-May-02 13:06N 36°58' W 076°26'0 0.0
2018-May-02 04:35N 36°58' W 076°26'0 0.0
2018-May-02 04:17N 36°58' W 076°26'0 0.0
2018-May-02 03:53N 36°58' W 076°26'0 0.0
2018-May-02 03:29N 36°58' W 076°26'0 0.0
2018-May-02 02:44N 36°58' W 076°26'0 0.0
2018-May-01 04:56N 36°58' W 076°26'1 3.5
2018-May-01 04:30N 36°57' W 076°24'5 9.7
2018-May-01 03:59N 36°60' W 076°19'612.4
2018-May-01 03:30N 36°60' W 076°11'714.4
2018-May-01 03:00N 36°57' W 076°03'510.6
2018-May-01 02:30N 36°57' W 075°56'510.3
2018-May-01 02:00N 36°57' W 075°50'510.7
2018-May-01 01:30N 36°58' W 075°43'  

Dump ship's entire track history